Terminal Aerodrome Forecast
Issued by NWS Twin Cities, MN

Home | Current Version | Previous Version | Text Only | Print | Product List | Glossary Off
Versions: 1 2 3 4 5 6 7 8 9 10 11 12 13 14 15 16 17 18 19 20 21 22 23 24 25

000
FTUS43 KMPX 231500 AAA
TAFMSP
TAF AMD
KMSP 231533Z 2316/2418 35005KT P6SM SKC
     FM231700 36008KT P6SM SCT050
     FM240000 03004KT P6SM SKC
     FM240400 VRB03KT P6SM SKC
     FM241500 15007KT P6SM SCT250=

USA.gov is the U.S. government's official web portal to all federal, state and local government web resources and services.